Aeroporto :
LOGIN :

Iscrizione | Disclaimer

   EN    FR    IT 

 










Sommario :    VFR   VFR Marginale   IFR   IFR Intensivo   IFR Molto Intensivo
Visibilità : 
Base nubi : 
>= 8 km
>= 3000ft
5 / 8 km
1000 / 3000 ft
1500m / 5 km
500 / 1000 ft
800 / 1500m
200 / 500 ft
< 800m
< 200 ft
Simboli :   Temporali  Nebbia  Neve Forte  Precipitazioni Forti  Vento > 20 kt
SIGMETs :   Varie  Temporali  Ghiacco  Turbolenza  Onda orograficha  Ceneri Vulcaniche






- Altitudine del aeroporto : 297 ft
- Codice IATA : BBU


LRBS - Bucarest - Baneasa Aurel Vlaicu

ULTIMO METAR :
  • 281130Z 35005KT CAVOK 17/M01 Q1012 NOSIG

METARs OBSOLETI :
  • 281100Z 07006KT 020V130 CAVOK 17/M01 Q1013 NOSIG
  • 281030Z VRB04KT CAVOK 17/00 Q1013 NOSIG
  • 281000Z 36006KT 310V040 CAVOK 16/M01 Q1013 NOSIG
  • 280930Z 03005KT 340V110 CAVOK 16/M01 Q1013 NOSIG
  • 280900Z 04006KT 320V080 CAVOK 16/M01 Q1014 NOSIG

TAF TAF LRBS
Valido dal 28 a 12 ore il 29 a 12 ore UTC


281100Z 2812/2912 VRB04KT CAVOK
TEMPO 2812/2815 04010KT



MetMap, La meteo Aeronautica in un colpo d'occhio ! - Copyright ORBIFLY Dicembre 2007 - Disclaimer

ORBIFLY MET'MAP TEAM :

Programmazione e sviluppo : Alexandra Zaïnal
Concezione : Baudouin d'Aumeries
Aiuto per la programmazione : Marc-Olivier Méhu
Supporto tecnico e logistico : Manuel Goepfert
Aiuto per la traduzione : Arnaldo La Scala

Contatto : metmap@orbifly.com




FONTI E CREDITI :

   NOAA